sensor_id;sensor_type;location;lat;lon;timestamp;temperature;humidity
63802;DHT22;49949;43.060;25.624;2024-01-25T00:01:10;-1.10;99.90
63802;DHT22;49949;43.060;25.624;2024-01-25T00:03:35;-1.10;99.90
63802;DHT22;49949;43.060;25.624;2024-01-25T00:06:01;-1.10;99.90
63802;DHT22;49949;43.060;25.624;2024-01-25T00:08:27;-1.10;99.90
63802;DHT22;49949;43.060;25.624;2024-01-25T00:10:53;-1.20;99.90
63802;DHT22;49949;43.060;25.624;2024-01-25T00:13:19;-1.20;99.90
63802;DHT22;49949;43.060;25.624;2024-01-25T00:15:44;-1.30;99.90
63802;DHT22;49949;43.060;25.624;2024-01-25T00:18:10;-1.30;99.90
63802;DHT22;49949;43.060;25.624;2024-01-25T00:20:36;-1.20;99.90
63802;DHT22;49949;43.060;25.624;2024-01-25T00:23:01;-1.30;99.90
63802;DHT22;49949;43.060;25.624;2024-01-25T00:25:27;-1.30;99.90
63802;DHT22;49949;43.060;25.624;2024-01-25T00:27:53;-1.30;99.90
63802;DHT22;49949;43.060;25.624;2024-01-25T00:30:19;-1.30;99.90
63802;DHT22;49949;43.060;25.624;2024-01-25T00:32:44;-1.20;99.90
63802;DHT22;49949;43.060;25.624;2024-01-25T00:35:10;-1.20;99.90
63802;DHT22;49949;43.060;25.624;2024-01-25T00:37:39;-1.20;99.90
63802;DHT22;49949;43.060;25.624;2024-01-25T00:40:06;-1.20;99.90
63802;DHT22;49949;43.060;25.624;2024-01-25T00:42:37;-1.20;99.90
63802;DHT22;49949;43.060;25.624;2024-01-25T00:45:05;-1.20;99.90
63802;DHT22;49949;43.060;25.624;2024-01-25T00:47:31;-1.10;99.90
63802;DHT22;49949;43.060;25.624;2024-01-25T00:49:57;-1.10;99.90
63802;DHT22;49949;43.060;25.624;2024-01-25T00:52:23;-1.20;99.90
63802;DHT22;49949;43.060;25.624;2024-01-25T00:54:49;-1.20;99.90
63802;DHT22;49949;43.060;25.624;2024-01-25T00:57:14;-1.20;99.90
63802;DHT22;49949;43.060;25.624;2024-01-25T00:59:40;-1.20;99.90
63802;DHT22;49949;43.060;25.624;2024-01-25T01:02:11;-1.20;99.90
63802;DHT22;49949;43.060;25.624;2024-01-25T01:04:38;-1.10;99.90
63802;DHT22;49949;43.060;25.624;2024-01-25T01:07:04;-1.10;99.90
63802;DHT22;49949;43.060;25.624;2024-01-25T01:09:30;-1.20;99.90
63802;DHT22;49949;43.060;25.624;2024-01-25T01:11:56;-1.20;99.90
63802;DHT22;49949;43.060;25.624;2024-01-25T01:14:22;-1.20;99.90
63802;DHT22;49949;43.060;25.624;2024-01-25T01:16:47;-1.20;99.90
63802;DHT22;49949;43.060;25.624;2024-01-25T01:19:13;-1.20;99.90
63802;DHT22;49949;43.060;25.624;2024-01-25T01:21:39;-1.30;99.90
63802;DHT22;49949;43.060;25.624;2024-01-25T01:24:12;-1.30;99.90
63802;DHT22;49949;43.060;25.624;2024-01-25T01:26:38;-1.20;99.90
63802;DHT22;49949;43.060;25.624;2024-01-25T01:29:04;-1.30;99.90
63802;DHT22;49949;43.060;25.624;2024-01-25T01:31:30;-1.30;99.90
63802;DHT22;49949;43.060;25.624;2024-01-25T01:33:56;-1.30;99.90
63802;DHT22;49949;43.060;25.624;2024-01-25T01:36:23;-1.20;99.90
63802;DHT22;49949;43.060;25.624;2024-01-25T01:38:49;-1.20;99.90
63802;DHT22;49949;43.060;25.624;2024-01-25T01:41:14;-1.20;99.90
63802;DHT22;49949;43.060;25.624;2024-01-25T01:43:40;-1.20;99.90
63802;DHT22;49949;43.060;25.624;2024-01-25T01:48:54;-1.20;99.90
63802;DHT22;49949;43.060;25.624;2024-01-25T01:51:20;-1.20;99.90
63802;DHT22;49949;43.060;25.624;2024-01-25T01:53:46;-1.20;99.90
63802;DHT22;49949;43.060;25.624;2024-01-25T01:56:12;-1.20;99.90
63802;DHT22;49949;43.060;25.624;2024-01-25T01:58:38;-1.20;99.90
63802;DHT22;49949;43.060;25.624;2024-01-25T02:01:05;-1.10;99.90
63802;DHT22;49949;43.060;25.624;2024-01-25T02:03:30;-1.10;99.90
63802;DHT22;49949;43.060;25.624;2024-01-25T02:05:56;-1.10;99.90
63802;DHT22;49949;43.060;25.624;2024-01-25T02:08:28;-1.10;99.90
63802;DHT22;49949;43.060;25.624;2024-01-25T02:10:54;-1.10;99.90
63802;DHT22;49949;43.060;25.624;2024-01-25T02:13:21;-1.10;99.90
63802;DHT22;49949;43.060;25.624;2024-01-25T02:15:47;-1.20;99.90
63802;DHT22;49949;43.060;25.624;2024-01-25T02:18:12;-1.10;99.90
63802;DHT22;49949;43.060;25.624;2024-01-25T02:20:38;-1.10;99.90
63802;DHT22;49949;43.060;25.624;2024-01-25T02:23:04;-1.00;99.90
63802;DHT22;49949;43.060;25.624;2024-01-25T02:25:29;-0.90;99.90
63802;DHT22;49949;43.060;25.624;2024-01-25T02:27:55;-0.90;99.90
63802;DHT22;49949;43.060;25.624;2024-01-25T02:30:21;-0.90;99.90
63802;DHT22;49949;43.060;25.624;2024-01-25T02:32:46;-0.90;99.90
63802;DHT22;49949;43.060;25.624;2024-01-25T02:35:12;-0.90;99.90
63802;DHT22;49949;43.060;25.624;2024-01-25T02:37:38;-0.90;99.90
63802;DHT22;49949;43.060;25.624;2024-01-25T02:40:04;-0.90;99.90
63802;DHT22;49949;43.060;25.624;2024-01-25T02:42:30;-0.90;99.90
63802;DHT22;49949;43.060;25.624;2024-01-25T02:44:56;-1.00;99.90
63802;DHT22;49949;43.060;25.624;2024-01-25T02:47:21;-1.00;99.90
63802;DHT22;49949;43.060;25.624;2024-01-25T02:49:47;-1.00;99.90
63802;DHT22;49949;43.060;25.624;2024-01-25T02:52:13;-1.00;99.90
63802;DHT22;49949;43.060;25.624;2024-01-25T02:54:38;-1.00;99.90
63802;DHT22;49949;43.060;25.624;2024-01-25T02:57:04;-1.10;99.90
63802;DHT22;49949;43.060;25.624;2024-01-25T02:59:30;-1.10;99.90
63802;DHT22;49949;43.060;25.624;2024-01-25T03:01:57;-1.10;99.90
63802;DHT22;49949;43.060;25.624;2024-01-25T03:04:23;-1.10;99.90
63802;DHT22;49949;43.060;25.624;2024-01-25T03:06:48;-1.10;99.90
63802;DHT22;49949;43.060;25.624;2024-01-25T03:09:14;-1.20;99.90
63802;DHT22;49949;43.060;25.624;2024-01-25T03:11:40;-1.20;99.90
63802;DHT22;49949;43.060;25.624;2024-01-25T03:14:05;-1.20;99.90
63802;DHT22;49949;43.060;25.624;2024-01-25T03:16:31;-1.20;99.90
63802;DHT22;49949;43.060;25.624;2024-01-25T03:18:57;-1.30;99.90
63802;DHT22;49949;43.060;25.624;2024-01-25T03:21:23;-1.20;99.90
63802;DHT22;49949;43.060;25.624;2024-01-25T03:23:49;-1.30;99.90
63802;DHT22;49949;43.060;25.624;2024-01-25T03:26:14;-1.40;99.90
63802;DHT22;49949;43.060;25.624;2024-01-25T03:28:40;-1.40;99.90
63802;DHT22;49949;43.060;25.624;2024-01-25T03:31:06;-1.30;99.90
63802;DHT22;49949;43.060;25.624;2024-01-25T03:33:32;-1.40;99.90
63802;DHT22;49949;43.060;25.624;2024-01-25T03:36:07;-1.30;99.90
63802;DHT22;49949;43.060;25.624;2024-01-25T03:38:33;-1.40;99.90
63802;DHT22;49949;43.060;25.624;2024-01-25T03:40:58;-1.30;99.90
63802;DHT22;49949;43.060;25.624;2024-01-25T03:43:27;-1.20;99.90
63802;DHT22;49949;43.060;25.624;2024-01-25T03:45:53;-1.30;99.90
63802;DHT22;49949;43.060;25.624;2024-01-25T03:48:19;-1.30;99.90
63802;DHT22;49949;43.060;25.624;2024-01-25T03:50:45;-1.40;99.90
63802;DHT22;49949;43.060;25.624;2024-01-25T03:53:11;-1.30;99.90
63802;DHT22;49949;43.060;25.624;2024-01-25T03:55:36;-1.30;99.90
63802;DHT22;49949;43.060;25.624;2024-01-25T03:58:02;-1.30;99.90
63802;DHT22;49949;43.060;25.624;2024-01-25T04:00:28;-1.20;99.90
63802;DHT22;49949;43.060;25.624;2024-01-25T04:02:53;-1.20;99.90
63802;DHT22;49949;43.060;25.624;2024-01-25T04:05:19;-1.10;99.90
63802;DHT22;49949;43.060;25.624;2024-01-25T04:07:45;-1.10;99.90
63802;DHT22;49949;43.060;25.624;2024-01-25T04:10:10;-1.10;99.90
63802;DHT22;49949;43.060;25.624;2024-01-25T04:12:36;-1.20;99.90
63802;DHT22;49949;43.060;25.624;2024-01-25T04:15:02;-1.10;99.90
63802;DHT22;49949;43.060;25.624;2024-01-25T04:17:27;-1.10;99.90
63802;DHT22;49949;43.060;25.624;2024-01-25T04:19:53;-1.10;99.90
63802;DHT22;49949;43.060;25.624;2024-01-25T04:22:19;-1.10;99.90
63802;DHT22;49949;43.060;25.624;2024-01-25T04:24:44;-1.10;99.90
63802;DHT22;49949;43.060;25.624;2024-01-25T04:27:14;-1.10;99.90
63802;DHT22;49949;43.060;25.624;2024-01-25T04:29:40;-1.10;99.90
63802;DHT22;49949;43.060;25.624;2024-01-25T04:32:07;-1.00;99.90
63802;DHT22;49949;43.060;25.624;2024-01-25T04:34:33;-1.00;99.90
63802;DHT22;49949;43.060;25.624;2024-01-25T04:36:58;-1.00;99.90
63802;DHT22;49949;43.060;25.624;2024-01-25T04:39:24;-1.10;99.90
63802;DHT22;49949;43.060;25.624;2024-01-25T04:41:50;-1.10;99.90
63802;DHT22;49949;43.060;25.624;2024-01-25T04:44:15;-1.10;99.90
63802;DHT22;49949;43.060;25.624;2024-01-25T04:46:42;-1.00;99.90
63802;DHT22;49949;43.060;25.624;2024-01-25T04:49:07;-1.10;99.90
63802;DHT22;49949;43.060;25.624;2024-01-25T04:51:33;-1.10;99.90
63802;DHT22;49949;43.060;25.624;2024-01-25T04:53:59;-1.00;99.90
63802;DHT22;49949;43.060;25.624;2024-01-25T04:56:24;-1.00;99.90
63802;DHT22;49949;43.060;25.624;2024-01-25T04:58:50;-1.00;99.90
63802;DHT22;49949;43.060;25.624;2024-01-25T05:01:16;-1.00;99.90
63802;DHT22;49949;43.060;25.624;2024-01-25T05:03:42;-1.00;99.90
63802;DHT22;49949;43.060;25.624;2024-01-25T05:06:08;-0.90;99.90
63802;DHT22;49949;43.060;25.624;2024-01-25T05:08:33;-0.90;99.90
63802;DHT22;49949;43.060;25.624;2024-01-25T05:11:00;-0.90;99.90
63802;DHT22;49949;43.060;25.624;2024-01-25T05:13:25;-0.80;99.90
63802;DHT22;49949;43.060;25.624;2024-01-25T05:15:51;-0.80;99.90
63802;DHT22;49949;43.060;25.624;2024-01-25T05:18:17;-0.60;99.90
63802;DHT22;49949;43.060;25.624;2024-01-25T05:20:43;-0.50;99.90
63802;DHT22;49949;43.060;25.624;2024-01-25T05:23:09;-0.40;99.90
63802;DHT22;49949;43.060;25.624;2024-01-25T05:25:35;-0.30;99.90
63802;DHT22;49949;43.060;25.624;2024-01-25T05:28:01;0.00;99.90
63802;DHT22;49949;43.060;25.624;2024-01-25T05:30:27;0.00;99.90
63802;DHT22;49949;43.060;25.624;2024-01-25T05:32:53;0.10;99.90
63802;DHT22;49949;43.060;25.624;2024-01-25T05:35:21;0.40;99.90
63802;DHT22;49949;43.060;25.624;2024-01-25T05:37:47;0.50;99.90
63802;DHT22;49949;43.060;25.624;2024-01-25T05:40:13;0.50;99.90
63802;DHT22;49949;43.060;25.624;2024-01-25T05:42:39;0.60;99.90
63802;DHT22;49949;43.060;25.624;2024-01-25T05:45:06;0.60;99.90
63802;DHT22;49949;43.060;25.624;2024-01-25T05:47:32;0.70;99.90
63802;DHT22;49949;43.060;25.624;2024-01-25T05:49:58;0.90;99.90
63802;DHT22;49949;43.060;25.624;2024-01-25T05:52:24;1.00;99.90
63802;DHT22;49949;43.060;25.624;2024-01-25T05:54:50;1.10;99.90
63802;DHT22;49949;43.060;25.624;2024-01-25T05:57:16;1.10;99.90
63802;DHT22;49949;43.060;25.624;2024-01-25T05:59:42;1.20;99.90
63802;DHT22;49949;43.060;25.624;2024-01-25T06:02:08;1.20;99.90
63802;DHT22;49949;43.060;25.624;2024-01-25T06:04:34;1.40;99.90
63802;DHT22;49949;43.060;25.624;2024-01-25T06:07:00;1.90;99.90
63802;DHT22;49949;43.060;25.624;2024-01-25T06:09:26;2.30;99.90
63802;DHT22;49949;43.060;25.624;2024-01-25T06:11:51;2.50;99.90
63802;DHT22;49949;43.060;25.624;2024-01-25T06:14:17;2.70;99.90
63802;DHT22;49949;43.060;25.624;2024-01-25T06:16:43;3.40;99.90
63802;DHT22;49949;43.060;25.624;2024-01-25T06:19:10;4.10;99.90
63802;DHT22;49949;43.060;25.624;2024-01-25T06:21:36;4.60;99.90
63802;DHT22;49949;43.060;25.624;2024-01-25T06:24:04;5.10;99.90
63802;DHT22;49949;43.060;25.624;2024-01-25T06:26:30;5.50;99.90
63802;DHT22;49949;43.060;25.624;2024-01-25T06:28:56;5.80;99.90
63802;DHT22;49949;43.060;25.624;2024-01-25T06:31:22;6.00;99.90
63802;DHT22;49949;43.060;25.624;2024-01-25T06:33:48;6.40;99.90
63802;DHT22;49949;43.060;25.624;2024-01-25T06:36:16;6.50;99.90
63802;DHT22;49949;43.060;25.624;2024-01-25T06:38:42;6.70;99.90
63802;DHT22;49949;43.060;25.624;2024-01-25T06:41:08;6.80;99.90
63802;DHT22;49949;43.060;25.624;2024-01-25T06:43:34;6.80;99.90
63802;DHT22;49949;43.060;25.624;2024-01-25T06:46:00;7.00;99.90
63802;DHT22;49949;43.060;25.624;2024-01-25T06:48:26;7.10;99.90
63802;DHT22;49949;43.060;25.624;2024-01-25T06:50:51;7.10;99.90
63802;DHT22;49949;43.060;25.624;2024-01-25T06:53:18;7.20;99.90
63802;DHT22;49949;43.060;25.624;2024-01-25T06:55:44;7.10;99.90
63802;DHT22;49949;43.060;25.624;2024-01-25T06:58:10;7.20;99.90
63802;DHT22;49949;43.060;25.624;2024-01-25T07:00:35;7.30;99.90
63802;DHT22;49949;43.060;25.624;2024-01-25T07:03:01;7.30;99.90
63802;DHT22;49949;43.060;25.624;2024-01-25T07:05:26;7.30;99.90
63802;DHT22;49949;43.060;25.624;2024-01-25T07:07:52;7.40;99.90
63802;DHT22;49949;43.060;25.624;2024-01-25T07:10:18;7.60;99.90
63802;DHT22;49949;43.060;25.624;2024-01-25T07:12:44;7.70;99.90
63802;DHT22;49949;43.060;25.624;2024-01-25T07:15:10;7.70;99.90
63802;DHT22;49949;43.060;25.624;2024-01-25T07:17:35;7.80;99.90
63802;DHT22;49949;43.060;25.624;2024-01-25T07:20:01;8.00;99.90
63802;DHT22;49949;43.060;25.624;2024-01-25T07:22:27;8.00;99.90
63802;DHT22;49949;43.060;25.624;2024-01-25T07:24:53;8.10;99.90
63802;DHT22;49949;43.060;25.624;2024-01-25T07:27:18;8.30;99.90
63802;DHT22;49949;43.060;25.624;2024-01-25T07:29:44;8.30;99.90
63802;DHT22;49949;43.060;25.624;2024-01-25T07:32:11;8.40;99.90
63802;DHT22;49949;43.060;25.624;2024-01-25T07:34:37;8.50;99.90
63802;DHT22;49949;43.060;25.624;2024-01-25T07:37:03;8.50;99.90
63802;DHT22;49949;43.060;25.624;2024-01-25T07:39:29;8.60;99.90
63802;DHT22;49949;43.060;25.624;2024-01-25T07:41:55;8.70;99.90
63802;DHT22;49949;43.060;25.624;2024-01-25T07:44:20;8.80;99.90
63802;DHT22;49949;43.060;25.624;2024-01-25T07:46:46;8.80;99.90
63802;DHT22;49949;43.060;25.624;2024-01-25T07:49:12;9.00;99.90
63802;DHT22;49949;43.060;25.624;2024-01-25T07:51:38;9.10;99.90
63802;DHT22;49949;43.060;25.624;2024-01-25T07:54:04;9.10;99.90
63802;DHT22;49949;43.060;25.624;2024-01-25T07:56:29;9.10;99.90
63802;DHT22;49949;43.060;25.624;2024-01-25T07:58:55;9.20;99.90
63802;DHT22;49949;43.060;25.624;2024-01-25T08:01:22;9.40;99.90
63802;DHT22;49949;43.060;25.624;2024-01-25T08:03:47;9.80;99.90
63802;DHT22;49949;43.060;25.624;2024-01-25T08:06:13;9.90;99.90
63802;DHT22;49949;43.060;25.624;2024-01-25T08:08:39;9.90;99.90
63802;DHT22;49949;43.060;25.624;2024-01-25T08:11:05;10.00;99.90
63802;DHT22;49949;43.060;25.624;2024-01-25T08:13:31;10.10;99.90
63802;DHT22;49949;43.060;25.624;2024-01-25T08:15:57;10.00;99.90
63802;DHT22;49949;43.060;25.624;2024-01-25T08:18:23;10.00;99.90
63802;DHT22;49949;43.060;25.624;2024-01-25T08:20:49;10.00;99.90
63802;DHT22;49949;43.060;25.624;2024-01-25T08:23:16;10.10;99.90
63802;DHT22;49949;43.060;25.624;2024-01-25T08:25:42;10.20;99.90
63802;DHT22;49949;43.060;25.624;2024-01-25T08:28:08;10.40;99.90
63802;DHT22;49949;43.060;25.624;2024-01-25T08:30:33;10.50;99.90
63802;DHT22;49949;43.060;25.624;2024-01-25T08:32:59;10.50;99.90
63802;DHT22;49949;43.060;25.624;2024-01-25T08:35:25;10.60;99.90
63802;DHT22;49949;43.060;25.624;2024-01-25T08:37:51;10.50;99.90
63802;DHT22;49949;43.060;25.624;2024-01-25T08:40:17;10.60;99.90
63802;DHT22;49949;43.060;25.624;2024-01-25T08:42:42;10.50;99.90
63802;DHT22;49949;43.060;25.624;2024-01-25T08:45:08;10.60;99.90
63802;DHT22;49949;43.060;25.624;2024-01-25T08:47:38;10.40;99.90
63802;DHT22;49949;43.060;25.624;2024-01-25T08:50:04;10.40;99.90
63802;DHT22;49949;43.060;25.624;2024-01-25T08:52:31;10.50;99.90
63802;DHT22;49949;43.060;25.624;2024-01-25T08:54:57;10.60;99.90
63802;DHT22;49949;43.060;25.624;2024-01-25T08:57:23;10.70;99.90
63802;DHT22;49949;43.060;25.624;2024-01-25T08:59:48;10.80;99.90
63802;DHT22;49949;43.060;25.624;2024-01-25T09:02:14;10.90;99.90
63802;DHT22;49949;43.060;25.624;2024-01-25T09:04:41;10.90;99.90
63802;DHT22;49949;43.060;25.624;2024-01-25T09:07:08;10.90;99.90
63802;DHT22;49949;43.060;25.624;2024-01-25T09:09:34;11.00;99.90
63802;DHT22;49949;43.060;25.624;2024-01-25T09:12:00;10.90;99.90
63802;DHT22;49949;43.060;25.624;2024-01-25T09:14:26;11.00;99.90
63802;DHT22;49949;43.060;25.624;2024-01-25T09:16:51;11.20;99.90
63802;DHT22;49949;43.060;25.624;2024-01-25T09:19:17;11.30;99.90
63802;DHT22;49949;43.060;25.624;2024-01-25T09:21:43;11.30;99.90
63802;DHT22;49949;43.060;25.624;2024-01-25T09:24:08;11.50;99.90
63802;DHT22;49949;43.060;25.624;2024-01-25T09:26:34;11.70;99.90
63802;DHT22;49949;43.060;25.624;2024-01-25T09:29:00;11.80;99.90
63802;DHT22;49949;43.060;25.624;2024-01-25T09:31:25;12.00;99.90
63802;DHT22;49949;43.060;25.624;2024-01-25T09:33:51;12.40;99.90
63802;DHT22;49949;43.060;25.624;2024-01-25T09:36:17;12.60;99.90
63802;DHT22;49949;43.060;25.624;2024-01-25T09:38:43;12.60;99.90
63802;DHT22;49949;43.060;25.624;2024-01-25T09:41:09;12.40;99.90
63802;DHT22;49949;43.060;25.624;2024-01-25T09:43:36;12.40;99.90
63802;DHT22;49949;43.060;25.624;2024-01-25T09:46:02;12.60;99.90
63802;DHT22;49949;43.060;25.624;2024-01-25T09:48:29;12.70;99.90
63802;DHT22;49949;43.060;25.624;2024-01-25T09:50:55;12.50;99.90
63802;DHT22;49949;43.060;25.624;2024-01-25T09:53:22;12.60;99.90
63802;DHT22;49949;43.060;25.624;2024-01-25T09:56:11;12.50;99.90
63802;DHT22;49949;43.060;25.624;2024-01-25T09:58:40;12.60;99.90
63802;DHT22;49949;43.060;25.624;2024-01-25T10:01:14;12.40;99.90
63802;DHT22;49949;43.060;25.624;2024-01-25T10:03:43;12.10;99.90
63802;DHT22;49949;43.060;25.624;2024-01-25T10:06:11;11.40;99.90
63802;DHT22;49949;43.060;25.624;2024-01-25T10:08:36;11.20;99.90
63802;DHT22;49949;43.060;25.624;2024-01-25T10:11:03;11.00;99.90
63802;DHT22;49949;43.060;25.624;2024-01-25T10:13:29;10.80;99.90
63802;DHT22;49949;43.060;25.624;2024-01-25T10:15:55;10.80;99.90
63802;DHT22;49949;43.060;25.624;2024-01-25T10:18:27;10.80;99.90
63802;DHT22;49949;43.060;25.624;2024-01-25T10:20:53;10.80;99.90
63802;DHT22;49949;43.060;25.624;2024-01-25T10:23:20;10.80;99.90
63802;DHT22;49949;43.060;25.624;2024-01-25T10:25:46;10.70;99.90
63802;DHT22;49949;43.060;25.624;2024-01-25T10:28:12;10.70;99.90
63802;DHT22;49949;43.060;25.624;2024-01-25T10:30:38;10.80;99.90
63802;DHT22;49949;43.060;25.624;2024-01-25T10:33:04;10.90;99.90
63802;DHT22;49949;43.060;25.624;2024-01-25T10:35:31;11.00;99.90
63802;DHT22;49949;43.060;25.624;2024-01-25T10:37:57;11.00;99.90
63802;DHT22;49949;43.060;25.624;2024-01-25T10:40:23;11.00;99.90
63802;DHT22;49949;43.060;25.624;2024-01-25T10:42:50;11.20;99.90
63802;DHT22;49949;43.060;25.624;2024-01-25T10:45:16;11.20;99.90
63802;DHT22;49949;43.060;25.624;2024-01-25T10:47:42;11.10;99.90
63802;DHT22;49949;43.060;25.624;2024-01-25T10:50:12;11.20;99.90
63802;DHT22;49949;43.060;25.624;2024-01-25T10:52:39;11.20;99.90
63802;DHT22;49949;43.060;25.624;2024-01-25T10:55:05;11.20;99.90
63802;DHT22;49949;43.060;25.624;2024-01-25T10:57:44;11.10;99.90
63802;DHT22;49949;43.060;25.624;2024-01-25T11:00:15;11.10;99.90
63802;DHT22;49949;43.060;25.624;2024-01-25T11:02:41;11.00;99.90
63802;DHT22;49949;43.060;25.624;2024-01-25T11:05:16;11.00;99.90
63802;DHT22;49949;43.060;25.624;2024-01-25T11:07:49;11.10;99.90
63802;DHT22;49949;43.060;25.624;2024-01-25T11:12:51;11.10;99.90
63802;DHT22;49949;43.060;25.624;2024-01-25T11:15:21;11.10;99.90
63802;DHT22;49949;43.060;25.624;2024-01-25T11:17:54;11.10;99.90
63802;DHT22;49949;43.060;25.624;2024-01-25T11:20:25;11.20;99.90
63802;DHT22;49949;43.060;25.624;2024-01-25T11:23:05;11.20;99.90
63802;DHT22;49949;43.060;25.624;2024-01-25T11:25:32;11.30;99.90
63802;DHT22;49949;43.060;25.624;2024-01-25T11:28:01;11.40;99.90
63802;DHT22;49949;43.060;25.624;2024-01-25T11:30:29;11.50;99.90
63802;DHT22;49949;43.060;25.624;2024-01-25T11:32:55;11.60;99.90
63802;DHT22;49949;43.060;25.624;2024-01-25T11:35:21;11.60;99.90
63802;DHT22;49949;43.060;25.624;2024-01-25T11:37:48;11.60;99.90
63802;DHT22;49949;43.060;25.624;2024-01-25T11:40:15;11.50;99.90
63802;DHT22;49949;43.060;25.624;2024-01-25T11:42:47;11.50;99.90
63802;DHT22;49949;43.060;25.624;2024-01-25T11:45:13;11.60;99.90
63802;DHT22;49949;43.060;25.624;2024-01-25T11:47:40;11.50;99.90
63802;DHT22;49949;43.060;25.624;2024-01-25T11:50:08;11.40;99.90
63802;DHT22;49949;43.060;25.624;2024-01-25T11:52:34;11.30;99.90
63802;DHT22;49949;43.060;25.624;2024-01-25T11:55:07;11.30;99.90
63802;DHT22;49949;43.060;25.624;2024-01-25T11:57:40;11.10;99.90
63802;DHT22;49949;43.060;25.624;2024-01-25T12:00:12;11.10;99.90
63802;DHT22;49949;43.060;25.624;2024-01-25T12:02:39;11.10;99.90
63802;DHT22;49949;43.060;25.624;2024-01-25T12:05:06;11.00;99.90
63802;DHT22;49949;43.060;25.624;2024-01-25T12:07:32;11.00;99.90
63802;DHT22;49949;43.060;25.624;2024-01-25T12:10:06;10.90;99.90
63802;DHT22;49949;43.060;25.624;2024-01-25T12:12:32;10.90;99.90
63802;DHT22;49949;43.060;25.624;2024-01-25T12:15:01;10.90;99.90
63802;DHT22;49949;43.060;25.624;2024-01-25T12:17:29;10.90;99.90
63802;DHT22;49949;43.060;25.624;2024-01-25T12:19:58;10.90;99.90
63802;DHT22;49949;43.060;25.624;2024-01-25T12:22:28;10.90;99.90
63802;DHT22;49949;43.060;25.624;2024-01-25T12:24:56;10.90;99.90
63802;DHT22;49949;43.060;25.624;2024-01-25T12:27:22;11.00;99.90
63802;DHT22;49949;43.060;25.624;2024-01-25T12:29:49;11.00;99.90
63802;DHT22;49949;43.060;25.624;2024-01-25T12:32:15;11.10;99.90
63802;DHT22;49949;43.060;25.624;2024-01-25T12:34:40;11.20;99.90
63802;DHT22;49949;43.060;25.624;2024-01-25T12:37:07;11.30;99.90
63802;DHT22;49949;43.060;25.624;2024-01-25T12:39:33;11.40;99.90
63802;DHT22;49949;43.060;25.624;2024-01-25T12:41:59;11.30;99.90
63802;DHT22;49949;43.060;25.624;2024-01-25T12:44:25;11.20;99.90
63802;DHT22;49949;43.060;25.624;2024-01-25T12:46:51;11.20;99.90
63802;DHT22;49949;43.060;25.624;2024-01-25T12:49:17;11.20;99.90
63802;DHT22;49949;43.060;25.624;2024-01-25T12:51:43;11.10;99.90
63802;DHT22;49949;43.060;25.624;2024-01-25T12:54:09;11.00;99.90
63802;DHT22;49949;43.060;25.624;2024-01-25T12:56:35;10.90;99.90
63802;DHT22;49949;43.060;25.624;2024-01-25T12:59:01;10.80;99.90
63802;DHT22;49949;43.060;25.624;2024-01-25T13:01:27;10.80;99.90
63802;DHT22;49949;43.060;25.624;2024-01-25T13:03:53;10.70;99.90
63802;DHT22;49949;43.060;25.624;2024-01-25T13:06:18;10.60;99.90
63802;DHT22;49949;43.060;25.624;2024-01-25T13:08:44;10.60;99.90
63802;DHT22;49949;43.060;25.624;2024-01-25T13:11:11;10.50;99.90
63802;DHT22;49949;43.060;25.624;2024-01-25T13:13:37;10.40;99.90
63802;DHT22;49949;43.060;25.624;2024-01-25T13:16:02;10.30;99.90
63802;DHT22;49949;43.060;25.624;2024-01-25T13:18:28;10.30;99.90
63802;DHT22;49949;43.060;25.624;2024-01-25T13:20:54;10.20;99.90
63802;DHT22;49949;43.060;25.624;2024-01-25T13:23:19;10.20;99.90
63802;DHT22;49949;43.060;25.624;2024-01-25T13:25:45;10.20;99.90
63802;DHT22;49949;43.060;25.624;2024-01-25T13:28:11;10.20;99.90
63802;DHT22;49949;43.060;25.624;2024-01-25T13:30:36;10.30;99.90
63802;DHT22;49949;43.060;25.624;2024-01-25T13:33:02;10.40;99.90
63802;DHT22;49949;43.060;25.624;2024-01-25T13:35:28;10.50;99.90
63802;DHT22;49949;43.060;25.624;2024-01-25T13:37:53;10.60;99.90
63802;DHT22;49949;43.060;25.624;2024-01-25T13:40:19;10.60;99.90
63802;DHT22;49949;43.060;25.624;2024-01-25T13:42:45;10.60;99.90
63802;DHT22;49949;43.060;25.624;2024-01-25T13:45:11;10.60;99.90
63802;DHT22;49949;43.060;25.624;2024-01-25T13:47:36;10.70;99.90
63802;DHT22;49949;43.060;25.624;2024-01-25T13:50:02;10.70;99.90
63802;DHT22;49949;43.060;25.624;2024-01-25T13:52:28;10.70;99.90
63802;DHT22;49949;43.060;25.624;2024-01-25T13:54:53;10.70;99.90
63802;DHT22;49949;43.060;25.624;2024-01-25T13:57:20;10.70;99.90
63802;DHT22;49949;43.060;25.624;2024-01-25T13:59:49;10.70;99.90
63802;DHT22;49949;43.060;25.624;2024-01-25T14:02:15;10.70;99.90
63802;DHT22;49949;43.060;25.624;2024-01-25T14:04:41;10.70;99.90
63802;DHT22;49949;43.060;25.624;2024-01-25T14:07:06;10.60;99.90
63802;DHT22;49949;43.060;25.624;2024-01-25T14:09:32;10.50;99.90
63802;DHT22;49949;43.060;25.624;2024-01-25T14:11:59;10.50;99.90
63802;DHT22;49949;43.060;25.624;2024-01-25T14:14:25;10.40;99.90
63802;DHT22;49949;43.060;25.624;2024-01-25T14:16:50;10.40;99.90
63802;DHT22;49949;43.060;25.624;2024-01-25T14:19:16;10.40;99.90
63802;DHT22;49949;43.060;25.624;2024-01-25T14:21:43;10.30;99.90
63802;DHT22;49949;43.060;25.624;2024-01-25T14:24:08;10.30;99.90
63802;DHT22;49949;43.060;25.624;2024-01-25T14:26:34;10.20;99.90
63802;DHT22;49949;43.060;25.624;2024-01-25T14:29:00;10.10;99.90
63802;DHT22;49949;43.060;25.624;2024-01-25T14:31:25;10.00;99.90
63802;DHT22;49949;43.060;25.624;2024-01-25T14:33:51;9.90;99.90
63802;DHT22;49949;43.060;25.624;2024-01-25T14:36:17;9.80;99.90
63802;DHT22;49949;43.060;25.624;2024-01-25T14:38:42;9.70;99.90
63802;DHT22;49949;43.060;25.624;2024-01-25T14:41:09;9.70;99.90
63802;DHT22;49949;43.060;25.624;2024-01-25T14:43:39;9.70;99.90
63802;DHT22;49949;43.060;25.624;2024-01-25T14:46:05;9.60;99.90
63802;DHT22;49949;43.060;25.624;2024-01-25T14:48:31;9.70;99.90
63802;DHT22;49949;43.060;25.624;2024-01-25T14:50:57;9.60;99.90
63802;DHT22;49949;43.060;25.624;2024-01-25T14:53:23;9.50;99.90
63802;DHT22;49949;43.060;25.624;2024-01-25T14:55:48;9.50;99.90
63802;DHT22;49949;43.060;25.624;2024-01-25T14:58:14;9.50;99.90
63802;DHT22;49949;43.060;25.624;2024-01-25T15:00:50;9.40;99.90
63802;DHT22;49949;43.060;25.624;2024-01-25T15:03:16;9.40;99.90
63802;DHT22;49949;43.060;25.624;2024-01-25T15:05:42;9.30;99.90
63802;DHT22;49949;43.060;25.624;2024-01-25T15:08:08;9.40;99.90
63802;DHT22;49949;43.060;25.624;2024-01-25T15:10:33;9.40;99.90
63802;DHT22;49949;43.060;25.624;2024-01-25T15:12:59;9.50;99.90
63802;DHT22;49949;43.060;25.624;2024-01-25T15:15:25;9.40;99.90
63802;DHT22;49949;43.060;25.624;2024-01-25T15:17:53;9.40;99.90
63802;DHT22;49949;43.060;25.624;2024-01-25T15:20:20;9.40;99.90